createdAt,value
2022-12-13T00:02:05.990Z,100747.13
2022-12-13T00:04:35.601Z,100750.22
2022-12-13T00:07:05.182Z,100764.66
2022-12-13T00:09:34.807Z,100776.63
2022-12-13T00:12:04.409Z,100776.19
2022-12-13T00:14:34.254Z,100774.09
2022-12-13T00:17:03.830Z,100765.53
2022-12-13T00:19:33.376Z,100780.91
2022-12-13T00:22:03.004Z,100783.31
2022-12-13T00:24:32.661Z,100784.28
2022-12-13T00:27:02.545Z,100780.75
2022-12-13T00:29:32.095Z,100777.75
2022-12-13T00:32:01.865Z,100782.97
2022-12-13T00:34:32.155Z,100790.56
2022-12-13T00:37:01.819Z,100786.22
2022-12-13T00:39:31.493Z,100784.03
2022-12-13T00:42:01.048Z,100784.41
2022-12-13T00:44:30.839Z,100777.97
2022-12-13T00:47:00.450Z,100760.47
2022-12-13T00:49:30.085Z,100760.47
2022-12-13T00:51:59.816Z,100762.75
2022-12-13T00:54:29.883Z,100768.66
2022-12-13T00:56:59.489Z,100772.16
2022-12-13T00:59:29.118Z,100764.06
2022-12-13T01:01:59.149Z,100766.34
2022-12-13T01:04:28.923Z,100774.22
2022-12-13T01:06:58.544Z,100773.63
2022-12-13T01:09:31.264Z,100773.88
2022-12-13T01:12:06.866Z,100773.88
2022-12-13T01:14:41.404Z,100772.06
2022-12-13T01:17:11.472Z,100767.72
2022-12-13T01:19:41.168Z,100765.91
2022-12-13T01:22:12.737Z,100762.50
2022-12-13T01:24:42.846Z,100764.69
2022-12-13T01:27:12.806Z,100761.78
2022-12-13T01:29:42.474Z,100758.75
2022-12-13T01:32:12.030Z,100755.25
2022-12-13T01:34:41.631Z,100752.22
2022-12-13T01:37:11.183Z,100756.47
2022-12-13T01:39:40.856Z,100766.00
2022-12-13T01:42:16.839Z,100766.84
2022-12-13T01:44:58.731Z,100765.28
2022-12-13T01:47:37.445Z,100768.78
2022-12-13T01:50:12.132Z,100776.53
2022-12-13T01:52:44.703Z,100775.66
2022-12-13T01:55:17.385Z,100774.47
2022-12-13T01:57:52.325Z,100769.06
2022-12-13T02:00:22.344Z,100757.19
2022-12-13T02:02:52.322Z,100749.31
2022-12-13T02:05:36.507Z,100747.16
2022-12-13T02:08:07.001Z,100745.72
2022-12-13T02:10:36.638Z,100732.16
2022-12-13T02:13:07.194Z,100722.97
2022-12-13T02:16:01.312Z,100726.84
2022-12-13T02:18:42.362Z,100725.63
2022-12-13T02:21:38.015Z,100724.16
2022-12-13T02:24:26.587Z,100715.94
2022-12-13T02:27:01.805Z,100717.75
2022-12-13T02:29:43.279Z,100712.94
2022-12-13T02:32:15.483Z,100713.25
2022-12-13T02:34:49.271Z,100714.84
2022-12-13T02:37:31.590Z,100700.72
2022-12-13T02:40:13.194Z,100705.69
2022-12-13T02:43:03.557Z,100697.09
2022-12-13T02:45:43.195Z,100689.09
2022-12-13T02:48:15.876Z,100683.81
2022-12-13T02:50:46.778Z,100678.25
2022-12-13T02:53:18.437Z,100676.69
2022-12-13T02:55:48.110Z,100680.53
2022-12-13T02:58:25.266Z,100676.22
2022-12-13T03:01:27.869Z,100677.28
2022-12-13T03:04:14.565Z,100663.25
2022-12-13T03:06:46.761Z,100651.69
2022-12-13T03:09:28.430Z,100658.81
2022-12-13T03:12:22.075Z,100654.94
2022-12-13T03:15:19.904Z,100640.06
2022-12-13T03:17:56.708Z,100633.13
2022-12-13T03:20:29.273Z,100622.88
2022-12-13T03:23:00.287Z,100621.91
2022-12-13T03:25:33.810Z,100622.50
2022-12-13T03:28:03.813Z,100613.53
2022-12-13T03:30:35.222Z,100620.06
2022-12-13T03:33:04.888Z,100605.31
2022-12-13T03:35:44.782Z,100606.19
2022-12-13T03:38:21.732Z,100597.34
2022-12-13T03:41:06.240Z,100583.06
2022-12-13T03:43:36.065Z,100576.38
2022-12-13T03:46:05.670Z,100578.19
2022-12-13T03:48:35.649Z,100570.88
2022-12-13T03:51:05.492Z,100570.66
2022-12-13T03:53:35.606Z,100572.56
2022-12-13T03:56:07.445Z,100554.53
2022-12-13T03:58:38.346Z,100558.50
2022-12-13T04:01:13.785Z,100554.88
2022-12-13T04:03:45.347Z,100550.00
2022-12-13T04:06:21.799Z,100543.72
2022-12-13T04:08:53.794Z,100528.84
2022-12-13T04:11:42.783Z,100536.03
2022-12-13T04:14:22.385Z,100530.16
2022-12-13T04:16:53.970Z,100520.31
2022-12-13T04:19:24.201Z,100521.03
2022-12-13T04:21:55.719Z,100516.81
2022-12-13T04:24:30.964Z,100519.59
2022-12-13T04:27:02.845Z,100528.03
2022-12-13T04:29:34.489Z,100529.81
2022-12-13T04:32:26.580Z,100540.97
2022-12-13T04:35:00.843Z,100549.31
2022-12-13T04:37:32.045Z,100553.69
2022-12-13T04:40:01.716Z,100545.69
2022-12-13T04:42:31.293Z,100543.88
2022-12-13T04:45:00.912Z,100548.16
2022-12-13T04:47:30.506Z,100530.56
2022-12-13T04:50:00.171Z,100524.81
2022-12-13T04:52:30.419Z,100522.56
2022-12-13T04:57:29.400Z,100502.38
2022-12-13T04:59:58.974Z,100501.84
2022-12-13T05:02:29.621Z,100506.38
2022-12-13T05:04:59.194Z,100505.09
2022-12-13T05:07:29.844Z,100526.97
2022-12-13T05:09:59.460Z,100526.06
2022-12-13T05:12:29.169Z,100523.06
2022-12-13T05:14:59.103Z,100530.34
2022-12-13T05:17:28.692Z,100536.03
2022-12-13T05:19:58.305Z,100533.16
2022-12-13T05:22:28.247Z,100547.81
2022-12-13T05:24:57.859Z,100552.00
2022-12-13T05:27:27.401Z,100557.06
2022-12-13T05:30:03.961Z,100548.84
2022-12-13T05:32:43.306Z,100555.25
2022-12-13T05:35:23.095Z,100551.63
2022-12-13T05:37:54.998Z,100556.34
2022-12-13T05:40:30.487Z,100564.50
2022-12-13T05:43:01.982Z,100575.72
2022-12-13T05:45:33.169Z,100568.38
2022-12-13T05:48:03.379Z,100578.50
2022-12-13T05:50:33.006Z,100587.72
2022-12-13T05:53:02.689Z,100588.22
2022-12-13T05:55:32.282Z,100583.38
2022-12-13T05:58:02.687Z,100582.56
2022-12-13T06:00:33.048Z,100588.94
2022-12-13T06:03:03.057Z,100597.78
2022-12-13T06:05:33.216Z,100591.03
2022-12-13T06:08:03.297Z,100581.97
2022-12-13T06:11:09.936Z,100567.06
2022-12-13T06:13:45.432Z,100568.41
2022-12-13T06:16:22.936Z,100539.06
2022-12-13T06:19:03.256Z,100536.91
2022-12-13T06:21:44.045Z,100530.59
2022-12-13T06:24:21.129Z,100545.09
2022-12-13T06:26:52.087Z,100539.16
2022-12-13T06:29:25.536Z,100528.19
2022-12-13T06:32:01.735Z,100533.63
2022-12-13T06:34:35.713Z,100531.91
2022-12-13T06:37:08.492Z,100541.25
2022-12-13T06:39:38.311Z,100543.28
2022-12-13T06:42:09.765Z,100533.75
2022-12-13T06:44:39.295Z,100531.41
2022-12-13T06:47:11.493Z,100530.53
2022-12-13T06:49:45.008Z,100510.75
2022-12-13T06:52:15.902Z,100525.56
2022-12-13T06:54:46.121Z,100529.25
2022-12-13T06:57:16.453Z,100533.06
2022-12-13T06:59:46.185Z,100540.81
2022-12-13T07:02:24.993Z,100524.56
2022-12-13T07:04:56.232Z,100524.00
2022-12-13T07:07:27.614Z,100507.56
2022-12-13T07:09:57.796Z,100501.16
2022-12-13T07:12:27.361Z,100507.19
2022-12-13T07:14:57.611Z,100505.91
2022-12-13T07:17:32.775Z,100516.59
2022-12-13T07:20:09.284Z,100510.28
2022-12-13T07:22:46.602Z,100519.50
2022-12-13T07:25:28.303Z,100523.75
2022-12-13T07:28:01.272Z,100514.47
2022-12-13T07:30:42.289Z,100517.84
2022-12-13T07:33:12.912Z,100543.38
2022-12-13T07:35:55.487Z,100566.81
2022-12-13T07:38:25.241Z,100564.84
2022-12-13T07:40:58.046Z,100569.22
2022-12-13T07:43:28.193Z,100577.09
2022-12-13T07:46:01.225Z,100580.44
2022-12-13T07:48:32.106Z,100561.91
2022-12-13T07:51:07.345Z,100559.22
2022-12-13T07:53:37.238Z,100557.28
2022-12-13T07:56:09.485Z,100558.22
2022-12-13T07:58:39.491Z,100544.19
2022-12-13T08:01:11.980Z,100550.09
2022-12-13T08:03:41.667Z,100544.78
2022-12-13T08:06:13.833Z,100550.69
2022-12-13T08:08:43.479Z,100542.53
2022-12-13T08:11:16.989Z,100536.50
2022-12-13T08:13:45.968Z,100538.75
2022-12-13T08:16:27.532Z,100539.69
2022-12-13T08:19:03.283Z,100538.50
2022-12-13T08:24:30.176Z,100545.16
2022-12-13T08:27:04.676Z,100535.59
2022-12-13T08:29:36.396Z,100538.72
2022-12-13T08:32:14.682Z,100547.75
2022-12-13T08:34:44.649Z,100544.72
2022-12-13T08:37:14.736Z,100555.53
2022-12-13T08:39:44.372Z,100563.34
2022-12-13T08:42:19.286Z,100564.69
2022-12-13T08:44:51.847Z,100581.41
2022-12-13T08:47:26.061Z,100576.56
2022-12-13T08:50:02.336Z,100574.41
2022-12-13T08:52:39.465Z,100563.06
2022-12-13T08:55:12.077Z,100565.13
2022-12-13T08:57:42.747Z,100577.81
2022-12-13T09:00:17.580Z,100585.91
2022-12-13T09:02:47.806Z,100589.19
2022-12-13T09:05:33.237Z,100597.78
2022-12-13T09:08:23.452Z,100592.81
2022-12-13T09:11:10.668Z,100608.75
2022-12-13T09:13:50.680Z,100594.16
2022-12-13T09:16:25.430Z,100599.84
2022-12-13T09:18:56.171Z,100601.88
2022-12-13T09:21:31.847Z,100609.97
2022-12-13T09:24:02.804Z,100597.50
2022-12-13T09:26:37.693Z,100621.81
2022-12-13T09:29:11.742Z,100617.34
2022-12-13T09:31:41.887Z,100635.09
2022-12-13T09:34:12.938Z,100636.16
2022-12-13T09:36:43.709Z,100644.03
2022-12-13T09:39:13.691Z,100637.28
2022-12-13T09:41:45.650Z,100644.63
2022-12-13T09:44:31.992Z,100639.31
2022-12-13T09:47:13.706Z,100648.50
2022-12-13T09:49:51.857Z,100659.25
2022-12-13T09:52:25.718Z,100652.00
2022-12-13T09:54:58.427Z,100654.66
2022-12-13T09:57:34.390Z,100662.72
2022-12-13T10:00:12.517Z,100670.09
2022-12-13T10:02:53.854Z,100676.38
2022-12-13T10:05:40.410Z,100681.91
2022-12-13T10:08:24.399Z,100677.72
2022-12-13T10:10:54.735Z,100670.91
2022-12-13T10:13:50.935Z,100669.97
2022-12-13T10:16:36.505Z,100663.91
2022-12-13T10:19:55.342Z,100658.00
2022-12-13T10:22:25.040Z,100653.78
2022-12-13T10:25:01.793Z,100645.41
2022-12-13T10:27:35.262Z,100645.53
2022-12-13T10:30:29.084Z,100650.13
2022-12-13T10:33:00.207Z,100659.91
2022-12-13T10:35:31.153Z,100659.72
2022-12-13T10:38:31.716Z,100680.97
2022-12-13T10:41:02.059Z,100681.94
2022-12-13T10:43:31.999Z,100685.69
2022-12-13T10:46:05.564Z,100691.13
2022-12-13T10:48:38.980Z,100695.44
2022-12-13T10:51:11.958Z,100696.63
2022-12-13T10:53:48.235Z,100695.03
2022-12-13T10:56:23.351Z,100705.16
2022-12-13T10:59:17.521Z,100715.03
2022-12-13T11:01:47.706Z,100728.31
2022-12-13T11:04:33.123Z,100732.25
2022-12-13T11:07:23.801Z,100733.94
2022-12-13T11:09:53.448Z,100743.81
2022-12-13T11:12:26.726Z,100743.94
2022-12-13T11:14:56.209Z,100737.88
2022-12-13T11:17:29.534Z,100742.38
2022-12-13T11:20:03.788Z,100753.09
2022-12-13T11:22:36.729Z,100752.13
2022-12-13T11:25:21.644Z,100741.63
2022-12-13T11:28:26.604Z,100737.25
2022-12-13T11:31:01.299Z,100750.53
2022-12-13T11:33:48.300Z,100760.31
2022-12-13T11:36:34.441Z,100772.84
2022-12-13T11:39:03.917Z,100771.13
2022-12-13T11:41:50.766Z,100765.00
2022-12-13T11:44:32.858Z,100775.81
2022-12-13T11:47:03.784Z,100777.84
2022-12-13T11:49:47.084Z,100788.47
2022-12-13T11:52:31.549Z,100791.25
2022-12-13T11:55:27.075Z,100783.59
2022-12-13T11:58:03.522Z,100794.31
2022-12-13T12:00:41.887Z,100796.34
2022-12-13T12:03:23.992Z,100800.81
2022-12-13T12:06:03.592Z,100801.97
2022-12-13T12:08:44.426Z,100800.06
2022-12-13T12:11:20.520Z,100809.09
2022-12-13T12:14:15.059Z,100811.97
2022-12-13T12:17:02.717Z,100843.78
2022-12-13T12:19:40.186Z,100830.72
2022-12-13T12:22:51.156Z,100864.28
2022-12-13T12:25:30.583Z,100876.06
2022-12-13T12:28:33.523Z,100918.38
2022-12-13T12:31:03.013Z,100925.59
2022-12-13T12:33:47.508Z,100912.56
2022-12-13T12:37:03.671Z,100917.13
2022-12-13T12:40:07.547Z,100916.47
2022-12-13T12:43:14.287Z,100927.28
2022-12-13T12:46:13.060Z,100942.53
2022-12-13T12:49:06.085Z,100966.72
2022-12-13T12:51:57.291Z,100975.53
2022-12-13T12:54:51.358Z,100988.03
2022-12-13T12:57:28.245Z,100988.97
2022-12-13T13:00:20.682Z,100976.13
2022-12-13T13:03:18.786Z,100988.34
2022-12-13T13:06:14.316Z,101005.56
2022-12-13T13:09:06.619Z,101017.13
2022-12-13T13:11:44.679Z,101015.41
2022-12-13T13:14:32.671Z,101005.88
2022-12-13T13:17:22.966Z,101029.84
2022-12-13T13:19:55.937Z,101036.84
2022-12-13T13:22:44.252Z,101031.72
2022-12-13T13:25:43.951Z,101037.03
2022-12-13T13:28:24.627Z,101042.44
2022-12-13T13:31:05.294Z,101048.66
2022-12-13T13:33:40.915Z,101054.94
2022-12-13T13:36:11.688Z,101061.28
2022-12-13T13:39:01.607Z,101077.28
2022-12-13T13:42:02.750Z,101073.91
2022-12-13T13:44:54.790Z,101088.16
2022-12-13T13:47:24.346Z,101091.03
2022-12-13T13:50:15.011Z,101092.06
2022-12-13T13:53:13.559Z,101105.50
2022-12-13T13:56:16.206Z,101113.56
2022-12-13T13:59:22.747Z,101123.50
2022-12-13T14:02:48.467Z,101135.13
2022-12-13T14:05:31.249Z,101133.72
2022-12-13T14:08:20.655Z,101142.63
2022-12-13T14:11:27.177Z,101147.84
2022-12-13T14:14:24.771Z,101157.75
2022-12-13T14:17:35.100Z,101166.72
2022-12-13T14:20:30.573Z,101170.44
2022-12-13T14:23:38.486Z,101182.91
2022-12-13T14:26:39.006Z,101188.22
2022-12-13T14:29:17.010Z,101199.00
2022-12-13T14:31:49.439Z,101195.75
2022-12-13T14:34:30.533Z,101210.31
2022-12-13T14:37:05.835Z,101212.13
2022-12-13T14:39:36.277Z,101211.44
2022-12-13T14:42:50.137Z,101216.94
2022-12-13T14:45:36.009Z,101233.75
2022-12-13T14:48:29.142Z,101233.75
2022-12-13T14:50:59.410Z,101239.81
2022-12-13T14:53:42.975Z,101243.31
2022-12-13T14:56:27.352Z,101246.16
2022-12-13T14:59:04.214Z,101263.94
2022-12-13T15:01:42.472Z,101261.44
2022-12-13T15:04:39.397Z,101255.38
2022-12-13T15:07:15.122Z,101263.47
2022-12-13T15:09:47.333Z,101270.56
2022-12-13T15:12:24.508Z,101263.63
2022-12-13T15:15:06.889Z,101265.44
2022-12-13T15:17:39.000Z,101263.16
2022-12-13T15:20:35.091Z,101267.69
2022-12-13T15:23:29.183Z,101267.69
2022-12-13T15:26:28.010Z,101275.88
2022-12-13T15:29:09.441Z,101286.75
2022-12-13T15:31:41.978Z,101286.91
2022-12-13T15:34:36.808Z,101296.44
2022-12-13T15:37:29.646Z,101286.97
2022-12-13T15:40:15.870Z,101295.88
2022-12-13T15:42:48.984Z,101304.66
2022-12-13T15:45:36.655Z,101295.19
2022-12-13T15:48:07.581Z,101304.06
2022-12-13T15:50:47.222Z,101297.09
2022-12-13T15:53:30.244Z,101303.28
2022-12-13T15:56:02.289Z,101314.16
2022-12-13T15:58:38.646Z,101322.16
2022-12-13T16:01:08.249Z,101317.72
2022-12-13T16:03:48.741Z,101338.88
2022-12-13T16:06:24.294Z,101337.44
2022-12-13T16:09:00.191Z,101336.59
2022-12-13T16:11:34.098Z,101333.19
2022-12-13T16:14:33.982Z,101334.88
2022-12-13T16:17:26.037Z,101341.19
2022-12-13T16:19:57.456Z,101343.06
2022-12-13T16:22:27.306Z,101343.91
2022-12-13T16:24:58.007Z,101350.25
2022-12-13T16:27:27.591Z,101347.75
2022-12-13T16:29:57.106Z,101343.56
2022-12-13T16:32:26.785Z,101345.94
2022-12-13T16:34:56.353Z,101352.09
2022-12-13T16:37:28.706Z,101360.22
2022-12-13T16:39:58.335Z,101368.22
2022-12-13T16:42:28.927Z,101379.84
2022-12-13T16:45:32.415Z,101373.16
2022-12-13T16:47:50.443Z,101393.38
2022-12-13T16:50:22.879Z,101382.72
2022-12-13T16:52:52.494Z,101379.22
2022-12-13T16:55:22.030Z,101383.88
2022-12-13T16:58:01.839Z,101393.69
2022-12-13T17:00:32.382Z,101399.84
2022-12-13T17:03:02.557Z,101409.72
2022-12-13T17:05:32.648Z,101416.72
2022-12-13T17:08:02.662Z,101424.81
2022-12-13T17:10:32.294Z,101425.66
2022-12-13T17:13:01.810Z,101417.34
2022-12-13T17:15:31.756Z,101418.31
2022-12-13T17:18:01.428Z,101427.00
2022-12-13T17:20:31.006Z,101439.47
2022-12-13T17:23:00.737Z,101430.66
2022-12-13T17:25:30.315Z,101440.31
2022-12-13T17:28:00.264Z,101449.16
2022-12-13T17:30:34.037Z,101455.53
2022-12-13T17:33:04.992Z,101450.38
2022-12-13T17:35:34.535Z,101462.09
2022-12-13T17:38:04.105Z,101471.91
2022-12-13T17:40:33.676Z,101466.00
2022-12-13T17:43:03.233Z,101480.94
2022-12-13T17:45:32.803Z,101475.00
2022-12-13T17:48:02.326Z,101482.84
2022-12-13T17:50:32.187Z,101490.78
2022-12-13T17:53:01.742Z,101496.84
2022-12-13T17:55:35.668Z,101491.88
2022-12-13T17:58:05.196Z,101495.31
2022-12-13T18:00:34.927Z,101505.94
2022-12-13T18:03:04.549Z,101504.25
2022-12-13T18:05:35.384Z,101506.97
2022-12-13T18:08:04.935Z,101514.31
2022-12-13T18:10:34.504Z,101516.13
2022-12-13T18:13:04.038Z,101512.38
2022-12-13T18:15:36.073Z,101510.81
2022-12-13T18:18:12.869Z,101518.03
2022-12-13T18:20:42.621Z,101517.13
2022-12-13T18:23:12.486Z,101518.97
2022-12-13T18:25:42.518Z,101523.47
2022-12-13T18:28:12.269Z,101520.69
2022-12-13T18:30:41.878Z,101518.03
2022-12-13T18:33:13.977Z,101522.63
2022-12-13T18:35:43.541Z,101521.84
2022-12-13T18:38:13.138Z,101523.53
2022-12-13T18:40:42.697Z,101521.97
2022-12-13T18:43:12.269Z,101523.78
2022-12-13T18:45:41.831Z,101526.41
2022-12-13T18:48:11.672Z,101530.78
2022-12-13T18:50:47.109Z,101532.63
2022-12-13T18:53:18.259Z,101533.63
2022-12-13T18:55:47.801Z,101538.91
2022-12-13T18:58:17.325Z,101541.78
2022-12-13T19:00:47.551Z,101536.56
2022-12-13T19:03:17.617Z,101542.78
2022-12-13T19:05:47.220Z,101540.25
2022-12-13T19:08:16.734Z,101545.66
2022-12-13T19:10:50.035Z,101551.97
2022-12-13T19:13:19.593Z,101558.84
2022-12-13T19:15:49.150Z,101564.84
2022-12-13T19:18:18.945Z,101563.41
2022-12-13T19:20:50.304Z,101560.00
2022-12-13T19:23:20.568Z,101568.63
2022-12-13T19:25:50.294Z,101568.09
2022-12-13T19:28:20.208Z,101562.81
2022-12-13T19:30:50.217Z,101567.31
2022-12-13T19:33:19.974Z,101573.47
2022-12-13T19:35:49.510Z,101568.34
2022-12-13T19:38:19.085Z,101567.41
2022-12-13T19:40:48.634Z,101569.06
2022-12-13T19:43:18.241Z,101569.13
2022-12-13T19:45:48.430Z,101574.47
2022-12-13T19:48:18.444Z,101563.97
2022-12-13T19:50:48.207Z,101568.34
2022-12-13T19:53:18.861Z,101564.91
2022-12-13T19:55:48.610Z,101564.97
2022-12-13T19:58:18.322Z,101566.84
2022-12-13T20:00:48.070Z,101559.81
2022-12-13T20:03:17.950Z,101560.84
2022-12-13T20:05:58.075Z,101553.81
2022-12-13T20:08:27.958Z,101557.59
2022-12-13T20:11:03.910Z,101563.78
2022-12-13T20:13:34.543Z,101569.91
2022-12-13T20:16:05.973Z,101583.22
2022-12-13T20:18:36.468Z,101602.69
2022-12-13T20:21:13.273Z,101609.81
2022-12-13T20:26:35.531Z,101627.56
2022-12-13T20:27:23.342Z,101621.38
2022-12-13T20:29:07.000Z,101646.56
2022-12-13T20:31:39.581Z,101647.78
2022-12-13T20:34:11.735Z,101661.50
2022-12-13T20:36:41.394Z,101666.28
2022-12-13T20:39:14.043Z,101668.59
2022-12-13T20:41:44.057Z,101690.44
2022-12-13T20:44:15.052Z,101685.41
2022-12-13T20:46:44.778Z,101686.94
2022-12-13T20:49:14.307Z,101683.13
2022-12-13T20:51:44.337Z,101690.97
2022-12-13T20:54:13.974Z,101673.28
2022-12-13T20:56:43.615Z,101674.38
2022-12-13T20:59:14.924Z,101670.13
2022-12-13T21:01:48.984Z,101663.22
2022-12-13T21:04:19.029Z,101655.19
2022-12-13T21:06:48.607Z,101660.41
2022-12-13T21:09:18.188Z,101647.03
2022-12-13T21:11:50.295Z,101640.47
2022-12-13T21:14:22.812Z,101632.22
2022-12-13T21:16:55.327Z,101628.94
2022-12-13T21:19:39.017Z,101632.28
2022-12-13T21:22:09.890Z,101630.09
2022-12-13T21:24:39.416Z,101650.28
2022-12-13T21:27:09.358Z,101653.06
2022-12-13T21:29:38.923Z,101653.13
2022-12-13T21:32:08.661Z,101664.69
2022-12-13T21:34:38.214Z,101666.41
2022-12-13T21:37:07.948Z,101673.56
2022-12-13T21:39:37.556Z,101683.72
2022-12-13T21:42:07.191Z,101688.41
2022-12-13T21:44:37.162Z,101682.56
2022-12-13T21:47:13.985Z,101683.41
2022-12-13T21:49:48.406Z,101691.53
2022-12-13T21:52:18.742Z,101694.53
2022-12-13T21:54:48.428Z,101708.69
2022-12-13T21:57:35.950Z,101705.84
2022-12-13T22:00:06.289Z,101707.78
2022-12-13T22:02:35.879Z,101712.00
2022-12-13T22:05:05.544Z,101704.25
2022-12-13T22:07:35.691Z,101711.78
2022-12-13T22:10:05.530Z,101719.75
2022-12-13T22:12:38.104Z,101725.69
2022-12-13T22:15:10.564Z,101731.66
2022-12-13T22:17:40.931Z,101737.53
2022-12-13T22:20:16.817Z,101747.91
2022-12-13T22:22:46.873Z,101757.50
2022-12-13T22:25:16.801Z,101768.88
2022-12-13T22:27:46.303Z,101772.28
2022-12-13T22:30:15.957Z,101778.03
2022-12-13T22:32:45.487Z,101777.78
2022-12-13T22:35:16.112Z,101784.72
2022-12-13T22:37:45.734Z,101785.25
2022-12-13T22:40:18.493Z,101799.34
2022-12-13T22:42:48.496Z,101793.81
2022-12-13T22:45:18.173Z,101803.44
2022-12-13T22:47:47.813Z,101802.88
2022-12-13T22:50:18.141Z,101802.03
2022-12-13T22:52:47.665Z,101797.66
2022-12-13T22:55:18.110Z,101798.66
2022-12-13T22:57:48.508Z,101801.97
2022-12-13T23:00:18.700Z,101806.97
2022-12-13T23:02:48.381Z,101803.50
2022-12-13T23:05:18.179Z,101799.41
2022-12-13T23:07:48.655Z,101800.19
2022-12-13T23:10:36.662Z,101806.56
2022-12-13T23:13:06.329Z,101807.56
2022-12-13T23:15:42.322Z,101814.38
2022-12-13T23:18:14.356Z,101805.19
2022-12-13T23:20:43.951Z,101813.06
2022-12-13T23:23:18.099Z,101814.75
2022-12-13T23:25:48.918Z,101815.69
2022-12-13T23:28:18.899Z,101810.56
2022-12-13T23:30:48.508Z,101816.44
2022-12-13T23:33:18.159Z,101815.19
2022-12-13T23:35:48.113Z,101826.22
2022-12-13T23:38:18.593Z,101825.41
2022-12-13T23:40:48.671Z,101825.06
2022-12-13T23:43:20.138Z,101824.94
2022-12-13T23:45:50.529Z,101827.19
2022-12-13T23:48:26.698Z,101835.47
2022-12-13T23:50:59.590Z,101828.88
2022-12-13T23:53:33.219Z,101825.25
2022-12-13T23:56:12.950Z,101831.59
2022-12-13T23:58:50.848Z,101812.06
